Fort Myers Beach, FL (33931)

1:33 AM EDT on July 26, 2016 (GMT -0400)
PierSide Grill Times Square FMB | | Change Station

Elev 24 ft 26.45 °N, 81.96 °W | Updated 8 minutes ago

Clear
Clear
79.2 °F
Feels Like 82 °F
N
3.7
Wind Variable Wind from East

Today
High -- | Low -- °F
--% Chance of Precip.
Yesterday
High -- | Low -- °F
Precip. -- in
Pressure 30.07 in
Visibility 10.0 miles
Clouds Clear
Heat Index 82 °F
Dew Point 71 °F
Humidity 77%
Rainfall 0.00 in
Snow Depth Not available.
6:50 AM 8:18 PM
Waning Gibbous, 58% visible
METAR KFMY 260453Z AUTO 10004KT 10SM CLR 26/24 A3006 RMK AO2 SLP182 T02560239 403330233
Pressure 30.07 in
Visibility 10.0 miles
Clouds Clear
Heat Index 82 °F
Dew Point 71 °F
Humidity 77%
Rainfall 0.00 in
Snow Depth Not available.
6:50 AM 8:18 PM
Waning Gibbous, 58% visible
METAR KFMY 260453Z AUTO 10004KT 10SM CLR 26/24 A3006 RMK AO2 SLP182 T02560239 403330233

10-Day Weather Forecast

Almanac

Astronomy

Jul. 26, 2016 Rise Set
Actual Time
Civil Twilight
Nautical Twilight
Astronomical Twilight
Moon
Length of Visible Light
Length of Day
Tomorrow will be .
, % of the Moon is Illuminated

Today's Extremes

State Highs State Lows

Community

WunderPhotos

Upload Photos

1,927,538 photos uploaded!

WunderBlog® & News

Nearby

Air Quality

  Air Quality AQ Index Pollutant
Not available.

Snow Depth

Station Depth Elevation

Earthquake Activity

City Distance Mag. Time & Date
Minimum magnitude displayed is 2.5.

Coastal Water Temperatures

Place Temperature

Stations

Nearby Weather Stations

Station Location Temp. Windchill Dew Point Humidity Wind Precip. Elev Updated Type
                   

Watches & Warnings

There are currently no watches in effect.